Time;durP1;ratioP1;P1;durP2;ratioP2;P2;SDS_P1;SDS_P2;PMS_P1;PMS_P2;Temp;Humidity;BMP_temperature;BMP_pressure;BME280_temperature;BME280_humidity;BME280_pressure;Samples;Min_cycle;Max_cycle;Signal;HPM_P1;HPM_P2
2022/10/23 00:00:46;;;;;;;;;2.00;2.00;;;;;;;;5079117;27;45438;-76
2022/10/23 00:03:11;;;;;;;;;3.00;3.00;;;;;;;;5080143;28;45208;-76
2022/10/23 00:05:38;;;;;;;;;12.33;12.00;;;;;;;;5080009;27;45422;-75
2022/10/23 00:08:03;;;;;;;;;10.25;6.00;;;;;;;;5079487;28;45431;-76
2022/10/23 00:10:28;;;;;;;;;4.75;4.75;;;;;;;;5078827;28;45312;-77
2022/10/23 00:12:54;;;;;;;;;3.00;3.00;;;;;;;;5074735;27;45757;-77
2022/10/23 00:15:20;;;;;;;;;7.25;3.00;;;;;;;;5082216;27;45835;-77
2022/10/23 00:17:45;;;;;;;;;7.00;5.00;;;;;;;;5077776;27;45535;-77
2022/10/23 00:20:11;;;;;;;;;5.00;3.50;;;;;;;;5080450;27;45382;-77
2022/10/23 00:22:37;;;;;;;;;5.00;3.50;;;;;;;;5078098;27;45520;-77
2022/10/23 00:25:03;;;;;;;;;4.00;3.25;;;;;;;;5080775;27;45447;-76
2022/10/23 00:27:28;;;;;;;;;4.50;4.50;;;;;;;;5077815;27;45549;-76
2022/10/23 00:29:54;;;;;;;;;6.25;3.75;;;;;;;;5077627;27;45496;-77
2022/10/23 00:32:19;;;;;;;;;5.75;4.75;;;;;;;;5077637;28;45294;-77
2022/10/23 00:34:44;;;;;;;;;3.50;3.50;;;;;;;;5059793;28;45443;-76
2022/10/23 00:37:09;;;;;;;;;9.75;4.50;;;;;;;;5079348;27;45535;-76
2022/10/23 00:39:35;;;;;;;;;5.00;5.00;;;;;;;;5079040;27;45403;-76
2022/10/23 00:42:00;;;;;;;;;3.00;3.00;;;;;;;;5081070;27;45417;-77
2022/10/23 00:44:28;;;;;;;;;4.50;3.25;;;;;;;;5077780;28;45207;-78
2022/10/23 00:46:53;;;;;;;;;3.25;3.25;;;;;;;;5077379;27;45592;-78
2022/10/23 00:49:19;;;;;;;;;4.25;3.00;;;;;;;;5077428;28;45307;-78
2022/10/23 00:52:05;;;;;;;;;5.50;4.00;;;;;;;;5077946;27;45676;-76
2022/10/23 00:54:33;;;;;;;;;3.00;3.00;;;;;;;;5080084;27;45559;-76
2022/10/23 00:57:00;;;;;;;;;3.75;3.75;;;;;;;;5077179;28;45708;-76
2022/10/23 00:59:25;;;;;;;;;5.50;5.50;;;;;;;;5074573;27;45386;-77
2022/10/23 01:01:51;;;;;;;;;11.75;4.00;;;;;;;;5077031;28;45528;-76
2022/10/23 01:04:16;;;;;;;;;6.50;4.00;;;;;;;;5077356;28;45439;-77
2022/10/23 01:06:44;;;;;;;;;5.75;3.00;;;;;;;;5076740;28;45797;-76
2022/10/23 01:09:27;;;;;;;;;7.50;6.25;;;;;;;;5061167;28;45405;-77
2022/10/23 01:11:55;;;;;;;;;4.00;3.00;;;;;;;;5073712;28;45484;-78
2022/10/23 01:14:30;;;;;;;;;4.00;3.00;;;;;;;;5077648;27;45831;-78
2022/10/23 01:16:58;;;;;;;;;7.00;4.00;;;;;;;;5078422;27;45559;-79
2022/10/23 01:19:37;;;;;;;;;4.25;3.25;;;;;;;;5074855;27;45500;-79
2022/10/23 01:22:12;;;;;;;;;3.75;3.75;;;;;;;;5071849;27;45450;-77
2022/10/23 01:24:55;;;;;;;;;4.50;3.00;;;;;;;;5071957;28;45390;-72
2022/10/23 01:27:21;;;;;;;;;4.50;4.00;;;;;;;;5079579;27;46170;-73
2022/10/23 01:29:59;;;;;;;;;4.00;3.50;;;;;;;;5076620;27;45361;-74
2022/10/23 01:32:27;;;;;;;;;5.50;5.50;;;;;;;;5077404;27;45456;-73
2022/10/23 01:35:04;;;;;;;;;6.50;4.50;;;;;;;;5076799;28;45549;-71
2022/10/23 01:37:49;;;;;;;;;6.50;3.00;;;;;;;;5076279;28;46560;-73
2022/10/23 01:40:29;;;;;;;;;5.50;3.75;;;;;;;;5075900;28;45440;-72
2022/10/23 01:42:57;;;;;;;;;6.50;6.25;;;;;;;;5078423;27;45815;-72
2022/10/23 01:45:27;;;;;;;;;2.00;2.00;;;;;;;;5079236;27;45670;-74
2022/10/23 01:47:54;;;;;;;;;4.75;4.75;;;;;;;;5075739;27;46198;-74
2022/10/23 01:50:20;;;;;;;;;5.50;4.50;;;;;;;;5076084;28;45415;-74
2022/10/23 01:52:45;;;;;;;;;3.00;3.00;;;;;;;;5073145;27;45342;-75
2022/10/23 01:55:11;;;;;;;;;6.50;5.00;;;;;;;;5057823;28;45517;-75
2022/10/23 01:57:38;;;;;;;;;4.50;3.00;;;;;;;;5057583;28;46661;-75
2022/10/23 02:00:05;;;;;;;;;4.75;4.00;;;;;;;;5057316;28;45227;-76
2022/10/23 02:02:32;;;;;;;;;3.00;3.00;;;;;;;;5057492;28;45292;-73
2022/10/23 02:05:01;;;;;;;;;6.50;4.50;;;;;;;;5057487;28;45517;-70
2022/10/23 02:07:27;;;;;;;;;5.75;3.50;;;;;;;;5074643;28;46335;-73
2022/10/23 02:09:52;;;;;;;;;7.50;4.75;;;;;;;;5077871;28;45430;-77
2022/10/23 02:12:25;;;;;;;;;3.00;2.25;;;;;;;;5078053;28;45232;-75
2022/10/23 02:14:54;;;;;;;;;4.25;2.50;;;;;;;;5077425;28;45260;-71
2022/10/23 02:17:41;;;;;;;;;4.00;4.00;;;;;;;;5046712;28;47771;-74
2022/10/23 02:20:14;;;;;;;;;3.25;3.25;;;;;;;;5077440;27;45381;-74
2022/10/23 02:22:43;;;;;;;;;5.00;2.75;;;;;;;;5076345;28;45333;-74
2022/10/23 02:25:11;;;;;;;;;3.00;3.00;;;;;;;;5077842;28;45349;-72
2022/10/23 02:27:57;;;;;;;;;3.00;3.00;;;;;;;;5077605;28;45516;-70
2022/10/23 02:30:22;;;;;;;;;6.50;4.75;;;;;;;;5076760;28;45240;-71
2022/10/23 02:32:49;;;;;;;;;6.75;5.25;;;;;;;;5076856;27;45301;-69
2022/10/23 02:35:15;;;;;;;;;4.00;3.75;;;;;;;;5076496;28;45233;-70
2022/10/23 02:37:40;;;;;;;;;4.75;4.00;;;;;;;;5077172;28;46320;-70
2022/10/23 02:40:07;;;;;;;;;7.50;3.50;;;;;;;;5062822;28;45342;-70
2022/10/23 02:42:42;;;;;;;;;4.00;3.00;;;;;;;;5057233;28;45265;-70
2022/10/23 02:45:10;;;;;;;;;3.00;3.00;;;;;;;;5057342;28;45338;-69
2022/10/23 02:47:54;;;;;;;;;4.25;2.00;;;;;;;;5057125;28;46376;-70
2022/10/23 02:50:34;;;;;;;;;3.00;3.00;;;;;;;;5059802;28;45573;-70
2022/10/23 02:53:14;;;;;;;;;3.00;1.75;;;;;;;;5077464;28;45167;-70
2022/10/23 02:55:57;;;;;;;;;2.25;2.25;;;;;;;;5057133;28;45243;-70
2022/10/23 02:58:42;;;;;;;;;5.25;4.00;;;;;;;;5066654;28;46578;-70
2022/10/23 03:01:09;;;;;;;;;4.00;4.00;;;;;;;;5076010;27;45454;-69
2022/10/23 03:03:37;;;;;;;;;3.25;3.00;;;;;;;;5076268;28;45506;-69
2022/10/23 03:06:02;;;;;;;;;2.75;2.75;;;;;;;;5076645;28;45743;-69
2022/10/23 03:08:28;;;;;;;;;4.75;3.00;;;;;;;;5056408;28;47262;-69
2022/10/23 03:10:53;;;;;;;;;4.75;4.25;;;;;;;;5038767;28;45471;-74
2022/10/23 03:13:18;;;;;;;;;2.75;2.75;;;;;;;;5062988;28;45248;-73
2022/10/23 03:15:44;;;;;;;;;4.25;3.00;;;;;;;;5073517;28;45680;-70
2022/10/23 03:18:09;;;;;;;;;3.50;3.50;;;;;;;;5077873;28;46227;-71
2022/10/23 03:20:34;;;;;;;;;8.50;4.25;;;;;;;;5080531;28;45398;-71
2022/10/23 03:23:00;;;;;;;;;3.75;3.75;;;;;;;;5075029;27;45410;-69
2022/10/23 03:25:25;;;;;;;;;4.75;3.00;;;;;;;;5067323;27;45416;-70
2022/10/23 03:27:50;;;;;;;;;4.00;3.00;;;;;;;;5060161;28;46440;-70
2022/10/23 03:30:16;;;;;;;;;5.50;3.00;;;;;;;;5075935;27;45311;-71
2022/10/23 03:32:41;;;;;;;;;2.75;2.50;;;;;;;;5075970;28;45619;-71
2022/10/23 03:35:06;;;;;;;;;2.50;2.50;;;;;;;;5070208;27;45440;-71
2022/10/23 03:37:31;;;;;;;;;2.00;2.00;;;;;;;;5080113;27;45534;-71
2022/10/23 03:39:57;;;;;;;;;2.00;2.00;;;;;;;;5080151;27;45359;-70
2022/10/23 03:42:22;;;;;;;;;1.50;1.50;;;;;;;;5072410;27;45435;-71
2022/10/23 03:44:48;;;;;;;;;4.50;3.50;;;;;;;;5060065;28;45313;-70
2022/10/23 03:47:13;;;;;;;;;2.00;2.00;;;;;;;;5072732;28;45590;-71
2022/10/23 03:49:38;;;;;;;;;5.00;3.75;;;;;;;;5079763;27;45238;-71
2022/10/23 03:52:04;;;;;;;;;3.00;2.50;;;;;;;;5077516;27;46188;-70
2022/10/23 03:54:29;;;;;;;;;3.00;3.00;;;;;;;;5059924;28;45467;-79
2022/10/23 03:56:54;;;;;;;;;3.50;3.50;;;;;;;;5077047;28;45639;-77
2022/10/23 03:59:20;;;;;;;;;2.75;2.75;;;;;;;;5075336;27;45380;-76
2022/10/23 04:01:45;;;;;;;;;2.25;2.25;;;;;;;;5059724;28;45506;-77
2022/10/23 04:04:11;;;;;;;;;3.75;2.00;;;;;;;;5070755;28;45532;-74
2022/10/23 04:06:36;;;;;;;;;2.00;2.00;;;;;;;;5079664;28;45368;-77
2022/10/23 04:09:02;;;;;;;;;3.25;3.25;;;;;;;;5079879;28;45355;-76
2022/10/23 04:11:27;;;;;;;;;4.25;3.25;;;;;;;;5079795;28;45245;-75
2022/10/23 04:13:52;;;;;;;;;3.75;2.25;;;;;;;;5065978;28;45251;-77
2022/10/23 04:16:17;;;;;;;;;4.00;2.00;;;;;;;;5064280;27;45572;-77
2022/10/23 04:18:43;;;;;;;;;4.00;2.75;;;;;;;;5078599;27;45439;-78
2022/10/23 04:21:08;;;;;;;;;3.00;3.00;;;;;;;;5079784;28;45296;-76
2022/10/23 04:23:33;;;;;;;;;3.00;3.00;;;;;;;;5079881;27;45344;-78
2022/10/23 04:25:58;;;;;;;;;3.00;3.00;;;;;;;;5078743;28;46114;-75
2022/10/23 04:28:24;;;;;;;;;3.75;2.25;;;;;;;;5073047;27;45693;-75
2022/10/23 04:30:49;;;;;;;;;4.00;3.00;;;;;;;;5079423;28;45268;-77
2022/10/23 04:33:14;;;;;;;;;2.50;2.50;;;;;;;;5078647;28;45308;-75
2022/10/23 04:35:39;;;;;;;;;4.00;4.00;;;;;;;;5079171;28;46342;-70
2022/10/23 04:38:05;;;;;;;;;5.00;3.50;;;;;;;;5079368;28;45453;-72
2022/10/23 04:40:30;;;;;;;;;3.00;3.00;;;;;;;;5079405;28;45294;-72
2022/10/23 04:42:55;;;;;;;;;3.75;1.50;;;;;;;;5076762;28;45522;-71
2022/10/23 04:45:20;;;;;;;;;3.75;2.75;;;;;;;;5078977;28;46600;-72
2022/10/23 04:47:45;;;;;;;;;2.50;2.00;;;;;;;;5079164;27;45280;-73
2022/10/23 04:50:11;;;;;;;;;3.50;3.50;;;;;;;;5071382;27;45374;-72
2022/10/23 04:52:36;;;;;;;;;2.75;2.75;;;;;;;;5058607;28;45186;-73
2022/10/23 04:55:01;;;;;;;;;4.50;4.00;;;;;;;;5058627;28;45614;-72
2022/10/23 04:57:26;;;;;;;;;2.25;2.25;;;;;;;;5062666;28;45254;-71
2022/10/23 04:59:51;;;;;;;;;2.00;2.00;;;;;;;;5078868;27;45305;-71
2022/10/23 05:02:17;;;;;;;;;2.50;1.75;;;;;;;;5074614;28;45339;-71
2022/10/23 05:04:42;;;;;;;;;3.75;2.00;;;;;;;;5076918;27;45646;-70
2022/10/23 05:07:07;;;;;;;;;4.00;3.00;;;;;;;;5072180;28;45491;-70
2022/10/23 05:09:32;;;;;;;;;3.00;3.00;;;;;;;;5058590;28;45278;-70
2022/10/23 05:11:57;;;;;;;;;3.25;2.25;;;;;;;;5058793;28;45420;-69
2022/10/23 05:14:23;;;;;;;;;2.50;2.25;;;;;;;;5058286;28;46652;-70
2022/10/23 05:16:54;;;;;;;;;2.25;2.25;;;;;;;;5070199;28;45210;-70
2022/10/23 05:19:20;;;;;;;;;3.00;3.00;;;;;;;;5077981;27;45490;-70
2022/10/23 05:21:47;;;;;;;;;3.00;3.00;;;;;;;;5077922;27;45276;-70
2022/10/23 05:24:12;;;;;;;;;2.25;1.50;;;;;;;;5074356;28;46330;-72
2022/10/23 05:26:37;;;;;;;;;2.00;2.00;;;;;;;;5058445;28;45337;-72
2022/10/23 05:29:03;;;;;;;;;2.75;2.75;;;;;;;;5075547;28;45246;-75
2022/10/23 05:31:28;;;;;;;;;5.25;2.00;;;;;;;;5078795;28;45345;-73
2022/10/23 05:33:55;;;;;;;;;3.00;2.00;;;;;;;;5078013;27;45379;-74
2022/10/23 05:36:21;;;;;;;;;2.25;1.00;;;;;;;;5078328;27;45293;-73
2022/10/23 05:38:46;;;;;;;;;2.25;2.25;;;;;;;;5078651;27;45265;-72
2022/10/23 05:41:11;;;;;;;;;2.00;2.00;;;;;;;;5073684;27;45242;-73
2022/10/23 05:43:37;;;;;;;;;5.00;3.75;;;;;;;;5077004;28;46614;-73
2022/10/23 05:46:06;;;;;;;;;3.25;2.25;;;;;;;;5078432;28;45156;-74
2022/10/23 05:48:31;;;;;;;;;4.25;3.00;;;;;;;;5075508;28;45175;-73
2022/10/23 05:51:01;;;;;;;;;2.50;0.75;;;;;;;;5078275;27;45423;-73
2022/10/23 05:53:26;;;;;;;;;2.75;2.75;;;;;;;;5078161;28;45935;-73
2022/10/23 05:55:51;;;;;;;;;2.00;0.50;;;;;;;;5077905;27;45323;-73
2022/10/23 05:58:17;;;;;;;;;3.50;2.50;;;;;;;;5077276;27;45296;-72
2022/10/23 06:00:42;;;;;;;;;2.00;2.00;;;;;;;;5076480;28;45243;-76
2022/10/23 06:03:07;;;;;;;;;4.50;1.25;;;;;;;;5075742;27;45456;-75
2022/10/23 06:05:32;;;;;;;;;4.25;2.50;;;;;;;;5077898;27;45454;-75
2022/10/23 06:07:58;;;;;;;;;4.00;2.50;;;;;;;;5077845;27;45225;-73
2022/10/23 06:10:23;;;;;;;;;2.50;2.00;;;;;;;;5058013;28;45423;-73
2022/10/23 06:12:49;;;;;;;;;2.25;2.00;;;;;;;;5073861;28;46918;-74
2022/10/23 06:15:15;;;;;;;;;3.60;2.00;;;;;;;;5076832;27;45484;-68
2022/10/23 06:17:40;;;;;;;;;1.50;1.50;;;;;;;;5077800;28;45300;-74
2022/10/23 06:20:05;;;;;;;;;2.00;2.00;;;;;;;;5077839;27;45485;-72
2022/10/23 06:22:31;;;;;;;;;1.00;1.00;;;;;;;;5077707;27;46494;-69
2022/10/23 06:24:56;;;;;;;;;2.50;2.00;;;;;;;;5067497;27;45348;-73
2022/10/23 06:27:21;;;;;;;;;0.00;0.00;;;;;;;;5078066;28;45407;-71
2022/10/23 06:29:47;;;;;;;;;2.75;2.00;;;;;;;;5078024;28;45316;-67
2022/10/23 06:32:12;;;;;;;;;1.50;1.50;;;;;;;;5075922;28;46526;-74
2022/10/23 06:34:37;;;;;;;;;2.00;2.00;;;;;;;;5077008;27;45516;-80
2022/10/23 06:37:03;;;;;;;;;3.00;1.00;;;;;;;;5076249;28;45323;-76
2022/10/23 06:39:28;;;;;;;;;3.00;3.00;;;;;;;;5077072;28;45308;-65
2022/10/23 06:41:53;;;;;;;;;4.50;2.75;;;;;;;;5075261;28;45823;-79
2022/10/23 06:44:18;;;;;;;;;3.00;3.00;;;;;;;;5077121;28;45459;-69
2022/10/23 06:46:46;;;;;;;;;2.00;2.00;;;;;;;;5075878;27;45554;-72
2022/10/23 06:49:12;;;;;;;;;2.50;2.50;;;;;;;;5076172;28;45471;-73
2022/10/23 06:51:37;;;;;;;;;4.25;3.00;;;;;;;;5078138;27;46585;-72
2022/10/23 06:54:02;;;;;;;;;2.75;2.75;;;;;;;;5080747;27;45445;-72
2022/10/23 06:56:29;;;;;;;;;4.00;3.50;;;;;;;;5080842;27;45732;-72
2022/10/23 06:58:54;;;;;;;;;2.00;2.00;;;;;;;;5080487;27;45477;-72
2022/10/23 07:01:20;;;;;;;;;4.00;4.00;;;;;;;;5071125;28;47157;-69
2022/10/23 07:03:46;;;;;;;;;3.25;2.75;;;;;;;;5066159;28;45211;-72
2022/10/23 07:06:11;;;;;;;;;3.25;3.25;;;;;;;;5080266;27;45291;-73
2022/10/23 07:08:37;;;;;;;;;5.50;3.75;;;;;;;;5078535;27;45423;-73
2022/10/23 07:11:03;;;;;;;;;4.00;3.00;;;;;;;;5079782;28;45300;-75
2022/10/23 07:13:28;;;;;;;;;6.50;4.25;;;;;;;;5076007;28;45409;-72
2022/10/23 07:15:54;;;;;;;;;3.00;3.00;;;;;;;;5075032;28;45367;-73
2022/10/23 07:18:19;;;;;;;;;5.25;3.75;;;;;;;;5080629;28;45408;-74
2022/10/23 07:20:48;;;;;;;;;3.25;3.25;;;;;;;;5078772;27;45262;-74
2022/10/23 07:23:15;;;;;;;;;3.50;2.50;;;;;;;;5080322;28;45312;-73
2022/10/23 07:25:40;;;;;;;;;5.25;3.50;;;;;;;;5080346;28;45281;-74
2022/10/23 07:28:05;;;;;;;;;3.75;3.75;;;;;;;;5080470;28;45162;-73
2022/10/23 07:30:31;;;;;;;;;4.75;3.00;;;;;;;;5078898;28;46349;-74
2022/10/23 07:32:56;;;;;;;;;4.75;3.00;;;;;;;;5079897;28;45478;-74
2022/10/23 07:35:21;;;;;;;;;3.25;3.00;;;;;;;;5078840;28;45248;-75
2022/10/23 07:37:47;;;;;;;;;5.00;5.00;;;;;;;;5080252;28;45485;-74
2022/10/23 07:40:12;;;;;;;;;4.25;3.00;;;;;;;;5075614;28;45349;-73
2022/10/23 07:42:38;;;;;;;;;4.00;3.00;;;;;;;;5075519;28;45467;-72
2022/10/23 07:45:05;;;;;;;;;4.00;2.00;;;;;;;;5079895;27;45297;-69
2022/10/23 07:47:31;;;;;;;;;3.75;3.75;;;;;;;;5072840;28;45439;-76
2022/10/23 07:49:56;;;;;;;;;2.50;2.00;;;;;;;;5059354;28;47246;-65
2022/10/23 07:52:21;;;;;;;;;4.25;3.00;;;;;;;;5059305;28;45254;-71
2022/10/23 07:54:49;;;;;;;;;4.00;3.00;;;;;;;;5060039;28;45538;-71
2022/10/23 07:57:14;;;;;;;;;3.50;3.00;;;;;;;;5059719;28;45338;-71
2022/10/23 07:59:40;;;;;;;;;3.00;3.00;;;;;;;;5062455;28;46340;-75
2022/10/23 08:02:08;;;;;;;;;3.75;3.25;;;;;;;;5079686;28;45195;-73
2022/10/23 08:04:34;;;;;;;;;2.00;2.00;;;;;;;;5079242;28;45467;-70
2022/10/23 08:06:59;;;;;;;;;4.00;3.75;;;;;;;;5079883;28;46201;-73
2022/10/23 08:09:25;;;;;;;;;8.25;5.00;;;;;;;;5079509;27;45445;-81
2022/10/23 08:11:50;;;;;;;;;7.00;4.25;;;;;;;;5079450;28;45445;-76
2022/10/23 08:14:15;;;;;;;;;4.75;4.25;;;;;;;;5077835;27;45366;-75
2022/10/23 08:16:40;;;;;;;;;4.00;4.00;;;;;;;;5079897;27;45288;-74
2022/10/23 08:19:06;;;;;;;;;6.00;4.50;;;;;;;;5056012;28;48523;-72
2022/10/23 08:21:31;;;;;;;;;5.00;5.00;;;;;;;;5058817;28;45381;-74
2022/10/23 08:23:57;;;;;;;;;7.75;5.75;;;;;;;;5059091;28;45321;-72
2022/10/23 08:26:24;;;;;;;;;4.25;4.25;;;;;;;;5059330;28;45293;-72
2022/10/23 08:28:50;;;;;;;;;10.00;5.75;;;;;;;;5069218;27;47200;-71
2022/10/23 08:31:16;;;;;;;;;5.00;3.50;;;;;;;;5066915;28;45467;-70
2022/10/23 08:33:42;;;;;;;;;14.00;7.25;;;;;;;;5079117;27;45274;-72
2022/10/23 08:36:26;;;;;;;;;4.00;4.00;;;;;;;;5079040;28;45383;-73
2022/10/23 08:38:55;;;;;;;;;3.75;3.75;;;;;;;;5079281;28;46463;-76
2022/10/23 08:41:23;;;;;;;;;4.50;3.00;;;;;;;;5079140;28;45328;-72
2022/10/23 08:43:53;;;;;;;;;5.25;4.50;;;;;;;;5079000;28;45463;-79
2022/10/23 08:46:23;;;;;;;;;4.00;4.00;;;;;;;;5061186;28;45423;-77
2022/10/23 08:48:58;;;;;;;;;3.75;3.00;;;;;;;;5078766;28;46047;-71
2022/10/23 08:51:30;;;;;;;;;3.00;3.00;;;;;;;;5078780;27;45248;-78
2022/10/23 08:54:02;;;;;;;;;7.00;4.00;;;;;;;;5090398;27;45375;-70
2022/10/23 08:56:31;;;;;;;;;4.75;2.75;;;;;;;;5090146;27;45625;-74
2022/10/23 08:59:25;;;;;;;;;6.50;4.00;;;;;;;;5062317;27;46326;-68
2022/10/23 09:01:59;;;;;;;;;5.25;5.25;;;;;;;;5000658;28;45579;-77
2022/10/23 09:04:24;;;;;;;;;3.50;3.50;;;;;;;;5006489;28;45601;-72
2022/10/23 09:07:04;;;;;;;;;4.25;3.00;;;;;;;;4996466;28;45385;-74
2022/10/23 09:09:48;;;;;;;;;3.25;3.25;;;;;;;;4996475;28;46788;-70
2022/10/23 09:12:16;;;;;;;;;5.00;3.00;;;;;;;;4996368;28;45435;-73
2022/10/23 09:14:47;;;;;;;;;5.00;5.00;;;;;;;;4987741;28;45377;-72
2022/10/23 09:17:18;;;;;;;;;4.00;4.00;;;;;;;;4976771;28;45358;-70
2022/10/23 09:19:45;;;;;;;;;8.25;3.00;;;;;;;;4987173;28;45601;-70
2022/10/23 09:22:11;;;;;;;;;4.50;4.50;;;;;;;;4992880;28;45860;-67
2022/10/23 09:24:36;;;;;;;;;2.25;1.75;;;;;;;;4996142;28;45397;-70
2022/10/23 09:27:01;;;;;;;;;3.25;3.25;;;;;;;;4989869;28;45453;-68
2022/10/23 09:29:29;;;;;;;;;3.00;3.00;;;;;;;;4989724;28;46714;-67
2022/10/23 09:31:56;;;;;;;;;3.25;3.25;;;;;;;;4984317;28;45560;-66
2022/10/23 09:34:29;;;;;;;;;3.25;3.25;;;;;;;;4990992;28;45379;-74
2022/10/23 09:36:58;;;;;;;;;4.00;4.00;;;;;;;;4994309;28;45517;-80
2022/10/23 09:39:35;;;;;;;;;5.75;4.50;;;;;;;;5042053;28;46686;-81
2022/10/23 09:42:03;;;;;;;;;6.50;5.25;;;;;;;;5057598;28;45331;-74
2022/10/23 09:44:30;;;;;;;;;5.00;5.00;;;;;;;;5057686;28;45391;-78
2022/10/23 09:46:59;;;;;;;;;5.50;3.75;;;;;;;;5057970;28;45308;-70
2022/10/23 09:49:29;;;;;;;;;9.50;4.75;;;;;;;;5057546;28;45359;-77
2022/10/23 09:51:58;;;;;;;;;6.50;4.25;;;;;;;;5056455;28;45525;-75
2022/10/23 09:54:23;;;;;;;;;4.50;3.25;;;;;;;;5057667;28;45257;-71
2022/10/23 09:56:48;;;;;;;;;4.00;4.00;;;;;;;;5057597;28;45390;-80
2022/10/23 09:59:13;;;;;;;;;6.50;4.00;;;;;;;;5057370;28;45317;-72
2022/10/23 10:01:46;;;;;;;;;7.50;3.50;;;;;;;;5056731;28;45592;-69
2022/10/23 10:04:11;;;;;;;;;5.75;4.25;;;;;;;;5056409;28;45861;-76
2022/10/23 10:06:36;;;;;;;;;3.50;3.00;;;;;;;;5055647;28;45387;-71
2022/10/23 10:09:06;;;;;;;;;7.25;4.50;;;;;;;;5055950;28;47394;-75
2022/10/23 10:11:43;;;;;;;;;4.50;3.00;;;;;;;;5057465;28;45317;-75
2022/10/23 10:14:20;;;;;;;;;3.00;2.00;;;;;;;;5063147;28;45272;-75
2022/10/23 10:16:48;;;;;;;;;6.00;4.25;;;;;;;;5059456;28;45466;-72
2022/10/23 10:19:34;;;;;;;;;5.00;3.75;;;;;;;;5077494;28;45414;-80
2022/10/23 10:22:09;;;;;;;;;4.50;3.25;;;;;;;;5077542;28;45626;-75
2022/10/23 10:24:34;;;;;;;;;5.25;3.50;;;;;;;;5077635;28;45466;-75
2022/10/23 10:27:02;;;;;;;;;3.00;3.00;;;;;;;;5077576;28;45301;-71
2022/10/23 10:29:42;;;;;;;;;3.75;3.75;;;;;;;;5077277;28;46355;-78
2022/10/23 10:32:30;;;;;;;;;5.25;4.00;;;;;;;;5077302;28;45329;-70
2022/10/23 10:35:08;;;;;;;;;5.00;3.00;;;;;;;;5077728;28;45377;-74
2022/10/23 10:37:45;;;;;;;;;5.75;3.00;;;;;;;;5077833;28;45273;-76
2022/10/23 10:40:29;;;;;;;;;3.00;3.00;;;;;;;;5077201;28;45680;-78
2022/10/23 10:43:13;;;;;;;;;3.25;3.25;;;;;;;;5077191;28;45458;-73
2022/10/23 10:45:40;;;;;;;;;3.00;3.00;;;;;;;;5075253;27;45391;-72
2022/10/23 10:48:05;;;;;;;;;6.00;3.25;;;;;;;;5077081;28;45365;-70
2022/10/23 10:50:40;;;;;;;;;3.25;3.25;;;;;;;;5077368;28;45475;-76
2022/10/23 10:53:12;;;;;;;;;7.75;6.50;;;;;;;;5076679;28;45440;-76
2022/10/23 10:55:39;;;;;;;;;5.50;4.25;;;;;;;;5077192;28;45892;-76
2022/10/23 10:58:12;;;;;;;;;3.00;3.00;;;;;;;;5075465;28;45479;-76
2022/10/23 11:00:37;;;;;;;;;3.50;2.75;;;;;;;;5065646;28;46777;-76
2022/10/23 11:03:15;;;;;;;;;3.75;2.25;;;;;;;;5056767;28;45475;-76
2022/10/23 11:05:42;;;;;;;;;2.50;2.50;;;;;;;;5056778;28;45179;-76
2022/10/23 11:08:29;;;;;;;;;6.00;3.50;;;;;;;;5056823;28;45179;-75
2022/10/23 11:10:59;;;;;;;;;3.00;3.00;;;;;;;;5056718;28;46217;-75
2022/10/23 11:13:43;;;;;;;;;5.25;3.75;;;;;;;;5056689;28;45313;-76
2022/10/23 11:16:11;;;;;;;;;5.50;4.00;;;;;;;;5056643;28;45300;-76
2022/10/23 11:18:39;;;;;;;;;6.50;5.25;;;;;;;;5056958;28;45290;-76
2022/10/23 11:21:16;;;;;;;;;5.00;5.00;;;;;;;;5056521;28;45588;-75
2022/10/23 11:24:00;;;;;;;;;11.00;7.50;;;;;;;;5056422;28;45485;-75
2022/10/23 11:26:45;;;;;;;;;6.50;4.00;;;;;;;;5056892;28;45584;-75
2022/10/23 11:29:29;;;;;;;;;7.75;6.25;;;;;;;;5056526;28;45475;-76
2022/10/23 11:32:13;;;;;;;;;3.25;3.00;;;;;;;;5055950;28;45425;-75
2022/10/23 11:34:56;;;;;;;;;6.00;4.00;;;;;;;;5056256;28;45304;-75
2022/10/23 11:37:23;;;;;;;;;5.00;5.00;;;;;;;;5056391;28;45260;-75
2022/10/23 11:40:14;;;;;;;;;5.75;5.00;;;;;;;;5058925;28;45167;-75
2022/10/23 11:42:40;;;;;;;;;6.50;5.00;;;;;;;;5056505;28;45318;-75
2022/10/23 11:45:23;;;;;;;;;5.00;4.00;;;;;;;;5059844;28;45262;-76
2022/10/23 11:47:55;;;;;;;;;5.75;3.25;;;;;;;;5059847;28;45379;-75
2022/10/23 11:50:32;;;;;;;;;4.25;3.00;;;;;;;;5059992;28;45329;-73
2022/10/23 11:52:59;;;;;;;;;5.00;3.00;;;;;;;;5059209;28;46666;-73
2022/10/23 11:55:28;;;;;;;;;5.00;2.00;;;;;;;;5059293;28;45372;-72
2022/10/23 11:58:05;;;;;;;;;6.00;4.00;;;;;;;;5063647;28;45266;-73
2022/10/23 12:00:32;;;;;;;;;3.25;3.25;;;;;;;;5080085;28;45489;-73
2022/10/23 12:02:58;;;;;;;;;6.00;6.00;;;;;;;;5078473;27;46705;-72
2022/10/23 12:05:33;;;;;;;;;2.50;1.00;;;;;;;;5078921;28;45421;-73
2022/10/23 12:07:59;;;;;;;;;6.50;3.50;;;;;;;;5079616;28;45416;-73
2022/10/23 12:10:28;;;;;;;;;7.50;3.75;;;;;;;;5078920;28;45527;-72
2022/10/23 12:12:57;;;;;;;;;4.75;3.75;;;;;;;;5078759;27;46297;-74
2022/10/23 12:15:23;;;;;;;;;3.00;1.75;;;;;;;;5077591;27;46529;-74
2022/10/23 12:17:49;;;;;;;;;5.50;3.75;;;;;;;;5079141;27;45823;-72
2022/10/23 12:20:18;;;;;;;;;5.50;3.00;;;;;;;;5077551;28;45627;-77
2022/10/23 12:22:49;;;;;;;;;4.75;4.00;;;;;;;;5078813;28;47108;-75
2022/10/23 12:25:32;;;;;;;;;5.75;3.50;;;;;;;;5078749;28;45855;-74
2022/10/23 12:28:18;;;;;;;;;5.50;3.50;;;;;;;;5079272;27;45367;-73
2022/10/23 12:31:06;;;;;;;;;3.75;3.75;;;;;;;;5078649;28;45486;-73
2022/10/23 12:33:37;;;;;;;;;3.50;3.00;;;;;;;;5016249;28;46198;-72
2022/10/23 12:36:21;;;;;;;;;4.50;4.00;;;;;;;;5016653;28;45469;-75
2022/10/23 12:38:48;;;;;;;;;4.50;3.00;;;;;;;;5016637;28;45422;-75
2022/10/23 12:41:20;;;;;;;;;4.00;2.50;;;;;;;;5016656;28;46143;-73
2022/10/23 12:44:04;;;;;;;;;3.50;3.50;;;;;;;;5016077;28;46518;-74
2022/10/23 12:46:38;;;;;;;;;6.75;5.00;;;;;;;;5016378;28;45380;-70
2022/10/23 12:49:11;;;;;;;;;10.00;10.00;;;;;;;;5016435;28;45390;-75
2022/10/23 12:51:36;;;;;;;;;2.50;2.00;;;;;;;;5016295;28;45559;-66
2022/10/23 12:54:02;;;;;;;;;4.50;3.75;;;;;;;;5015163;28;47623;-71
2022/10/23 12:56:33;;;;;;;;;5.50;3.25;;;;;;;;5015131;28;45255;-71
2022/10/23 12:59:00;;;;;;;;;4.75;3.25;;;;;;;;5015703;28;45423;-67
2022/10/23 13:01:26;;;;;;;;;8.33;6.00;;;;;;;;5016015;28;45523;-72
2022/10/23 13:03:56;;;;;;;;;4.00;3.00;;;;;;;;5012955;28;45493;-69
2022/10/23 13:06:21;;;;;;;;;9.50;6.50;;;;;;;;5015591;28;45327;-71
2022/10/23 13:08:48;;;;;;;;;5.00;3.75;;;;;;;;5015492;28;45385;-71
2022/10/23 13:11:14;;;;;;;;;3.25;3.25;;;;;;;;5065168;28;45411;-68
2022/10/23 13:13:40;;;;;;;;;4.25;3.00;;;;;;;;5060208;28;45569;-72
2022/10/23 13:16:20;;;;;;;;;2.75;2.75;;;;;;;;5077772;27;45335;-69
2022/10/23 13:18:45;;;;;;;;;4.00;3.50;;;;;;;;5077483;28;45425;-72
2022/10/23 13:21:28;;;;;;;;;2.25;2.25;;;;;;;;5078809;27;45443;-73
2022/10/23 13:23:54;;;;;;;;;3.00;3.00;;;;;;;;5078060;27;46463;-75
2022/10/23 13:26:24;;;;;;;;;3.00;3.00;;;;;;;;5078179;28;45406;-73
2022/10/23 13:28:49;;;;;;;;;4.00;4.00;;;;;;;;5077910;28;45675;-73
2022/10/23 13:31:15;;;;;;;;;3.25;2.75;;;;;;;;5078750;28;45307;-74
2022/10/23 13:33:40;;;;;;;;;8.00;4.75;;;;;;;;5078004;28;45359;-71
2022/10/23 13:36:19;;;;;;;;;3.75;3.25;;;;;;;;5078004;28;45480;-71
2022/10/23 13:38:46;;;;;;;;;7.00;4.00;;;;;;;;5078159;27;45216;-71
2022/10/23 13:41:12;;;;;;;;;5.00;3.00;;;;;;;;5078208;28;45380;-75
2022/10/23 13:43:38;;;;;;;;;5.75;4.50;;;;;;;;5077379;28;45544;-71
2022/10/23 13:46:03;;;;;;;;;5.75;4.75;;;;;;;;5077372;28;45349;-77
2022/10/23 13:48:29;;;;;;;;;3.50;3.00;;;;;;;;5078296;27;45376;-70
2022/10/23 13:50:58;;;;;;;;;5.00;3.00;;;;;;;;5078353;28;45309;-72
2022/10/23 13:53:24;;;;;;;;;2.00;2.00;;;;;;;;5077837;28;45710;-74
2022/10/23 13:55:50;;;;;;;;;7.25;7.25;;;;;;;;5077336;28;45408;-78
2022/10/23 13:58:15;;;;;;;;;7.00;7.00;;;;;;;;5077821;27;45356;-75
2022/10/23 14:00:42;;;;;;;;;7.75;3.00;;;;;;;;5077733;28;45553;-75
2022/10/23 14:03:08;;;;;;;;;5.00;2.50;;;;;;;;5077149;28;46530;-72
2022/10/23 14:05:33;;;;;;;;;3.75;2.25;;;;;;;;5077576;28;45320;-71
2022/10/23 14:07:58;;;;;;;;;5.75;2.50;;;;;;;;5077375;28;45329;-80
2022/10/23 14:10:23;;;;;;;;;3.00;3.00;;;;;;;;5077836;28;45318;-77
2022/10/23 14:12:53;;;;;;;;;4.50;1.00;;;;;;;;5076984;27;45393;-83
2022/10/23 14:15:19;;;;;;;;;4.50;4.00;;;;;;;;5076274;28;45538;-74
2022/10/23 14:17:44;;;;;;;;;2.25;2.00;;;;;;;;5077145;28;45465;-77
2022/10/23 14:20:10;;;;;;;;;4.00;4.00;;;;;;;;5077167;28;45424;-75
2022/10/23 14:22:35;;;;;;;;;4.75;3.00;;;;;;;;5077679;28;46655;-75
2022/10/23 14:25:00;;;;;;;;;5.00;3.75;;;;;;;;5077286;28;45360;-75
2022/10/23 14:27:25;;;;;;;;;2.50;2.50;;;;;;;;5077617;28;45414;-73
2022/10/23 14:29:51;;;;;;;;;3.50;2.50;;;;;;;;5077700;28;45360;-78
2022/10/23 14:32:16;;;;;;;;;6.75;3.50;;;;;;;;5077103;28;46379;-74
2022/10/23 14:34:43;;;;;;;;;5.25;3.25;;;;;;;;5077123;28;45381;-74
2022/10/23 14:37:08;;;;;;;;;4.00;3.00;;;;;;;;5076473;28;45371;-75
2022/10/23 14:39:33;;;;;;;;;2.25;2.25;;;;;;;;5076681;28;45636;-75
2022/10/23 14:41:59;;;;;;;;;3.75;2.75;;;;;;;;5076696;28;46126;-74
2022/10/23 14:44:24;;;;;;;;;3.75;3.75;;;;;;;;5076824;28;45450;-75
2022/10/23 14:46:49;;;;;;;;;4.50;4.50;;;;;;;;5077204;28;45401;-75
2022/10/23 14:49:14;;;;;;;;;8.00;3.00;;;;;;;;5077231;28;45462;-75
2022/10/23 14:51:40;;;;;;;;;8.00;8.00;;;;;;;;5076803;28;45393;-73